MET'MAP v2.0
soon released !

Expected late october,
this new version will be
more efficient, smarter,
and hosted on a brand new
server x3 powerfull...
...and still free !


Not compatible ?
Try the mobile version !

LOG IN : | Subscribe | Disclaimer | Who is Orbifly ? |
ICAO code :

TAF - DABC Mohamed Boudiaf Int. Constantine - 06 Dec 2019 19:24 UTC - Data Source NOAA   


- Airport Elevation : 2265 ft
- IATA code : CZL
- No reported NOTAMs.


DABC - Mohamed Boudiaf Int. Constantine

Latest METAR recorded : 2015/08/11 08:00 DABC 110800Z 31004KT 9999 FEW026 26/15 Q1018
TAF TAF DABC
Valid from the 06 at 18:00 until the 07 at 18:00 UTC


061700Z 0618/0718 29010KT 9999 FEW026 SCT090
BECMG 0620/0622 VRB02KT
PROB30
TEMPO 0700/0708 3000 BR SCT008
BECMG 0709/0711 28010KT
PROB40
TEMPO 0709/0718 FEW023CB
PROB30
TEMPO 0714/0718 4000 RA

Source NOAA


MET'MAP, your aeronautical weather chart ! - Copyright ORBIFLY December 2007

Programming & Development : Alexandra Zaïnal
Co-Developer : Marc-Olivier Méhu
Technical & hardware support : Manuel Goepfert
Concept & Financing : Baudouin d'Aumeries